sensor_id;sensor_type;location;lat;lon;timestamp;P1;durP1;ratioP1;P2;durP2;ratioP2
73593;SDS011;62064;53.406;23.500;2022-07-29T00:00:56;1.98;;;1.15;;
73593;SDS011;62064;53.406;23.500;2022-07-29T00:03:23;5.35;;;1.63;;
73593;SDS011;62064;53.406;23.500;2022-07-29T00:05:49;2.60;;;1.30;;
73593;SDS011;62064;53.406;23.500;2022-07-29T00:08:15;3.10;;;1.23;;
73593;SDS011;62064;53.406;23.500;2022-07-29T00:10:41;2.60;;;1.40;;
73593;SDS011;62064;53.406;23.500;2022-07-29T00:13:07;4.07;;;1.58;;
73593;SDS011;62064;53.406;23.500;2022-07-29T00:15:33;2.47;;;1.35;;
73593;SDS011;62064;53.406;23.500;2022-07-29T00:18:00;1.88;;;1.02;;
73593;SDS011;62064;53.406;23.500;2022-07-29T00:20:26;2.88;;;1.23;;
73593;SDS011;62064;53.406;23.500;2022-07-29T00:22:52;2.70;;;1.50;;
73593;SDS011;62064;53.406;23.500;2022-07-29T00:25:19;2.67;;;1.08;;
73593;SDS011;62064;53.406;23.500;2022-07-29T00:27:47;2.97;;;1.40;;
73593;SDS011;62064;53.406;23.500;2022-07-29T00:30:13;3.47;;;1.33;;
73593;SDS011;62064;53.406;23.500;2022-07-29T00:32:42;1.98;;;1.17;;
73593;SDS011;62064;53.406;23.500;2022-07-29T00:35:08;2.58;;;1.05;;
73593;SDS011;62064;53.406;23.500;2022-07-29T00:37:54;2.38;;;1.35;;
73593;SDS011;62064;53.406;23.500;2022-07-29T00:40:20;2.25;;;1.15;;
73593;SDS011;62064;53.406;23.500;2022-07-29T00:42:47;3.03;;;1.38;;
73593;SDS011;62064;53.406;23.500;2022-07-29T00:45:15;1.77;;;1.20;;
73593;SDS011;62064;53.406;23.500;2022-07-29T00:47:43;1.67;;;1.05;;
73593;SDS011;62064;53.406;23.500;2022-07-29T00:50:10;1.70;;;1.00;;
73593;SDS011;62064;53.406;23.500;2022-07-29T00:52:38;2.20;;;1.20;;
73593;SDS011;62064;53.406;23.500;2022-07-29T00:55:06;1.65;;;1.08;;
73593;SDS011;62064;53.406;23.500;2022-07-29T00:57:35;2.33;;;1.20;;
73593;SDS011;62064;53.406;23.500;2022-07-29T01:00:06;1.92;;;1.10;;
73593;SDS011;62064;53.406;23.500;2022-07-29T01:02:34;2.90;;;1.30;;
73593;SDS011;62064;53.406;23.500;2022-07-29T01:05:00;2.53;;;1.20;;
73593;SDS011;62064;53.406;23.500;2022-07-29T01:07:27;2.47;;;1.30;;
73593;SDS011;62064;53.406;23.500;2022-07-29T01:09:55;2.40;;;1.50;;
73593;SDS011;62064;53.406;23.500;2022-07-29T01:12:25;4.28;;;1.33;;
73593;SDS011;62064;53.406;23.500;2022-07-29T01:14:54;2.42;;;1.42;;
73593;SDS011;62064;53.406;23.500;2022-07-29T01:17:26;3.45;;;1.60;;
73593;SDS011;62064;53.406;23.500;2022-07-29T01:20:10;3.60;;;1.73;;
73593;SDS011;62064;53.406;23.500;2022-07-29T01:28:01;3.05;;;1.38;;
73593;SDS011;62064;53.406;23.500;2022-07-29T01:30:49;2.83;;;1.58;;
73593;SDS011;62064;53.406;23.500;2022-07-29T01:33:17;3.47;;;2.20;;
73593;SDS011;62064;53.406;23.500;2022-07-29T01:36:10;4.07;;;1.98;;
73593;SDS011;62064;53.406;23.500;2022-07-29T01:38:41;4.68;;;2.20;;
73593;SDS011;62064;53.406;23.500;2022-07-29T01:41:10;3.10;;;2.10;;
73593;SDS011;62064;53.406;23.500;2022-07-29T01:43:44;3.15;;;1.55;;
73593;SDS011;62064;53.406;23.500;2022-07-29T01:46:34;2.70;;;1.67;;
73593;SDS011;62064;53.406;23.500;2022-07-29T01:49:10;3.08;;;1.80;;
73593;SDS011;62064;53.406;23.500;2022-07-29T01:54:19;3.78;;;2.22;;
73593;SDS011;62064;53.406;23.500;2022-07-29T01:57:00;2.63;;;1.60;;
73593;SDS011;62064;53.406;23.500;2022-07-29T01:59:29;2.58;;;1.70;;
73593;SDS011;62064;53.406;23.500;2022-07-29T02:01:59;2.75;;;1.63;;
73593;SDS011;62064;53.406;23.500;2022-07-29T02:04:27;2.70;;;1.67;;
73593;SDS011;62064;53.406;23.500;2022-07-29T02:06:55;3.45;;;1.83;;
73593;SDS011;62064;53.406;23.500;2022-07-29T02:09:24;2.85;;;1.38;;
73593;SDS011;62064;53.406;23.500;2022-07-29T02:11:52;2.90;;;1.65;;
73593;SDS011;62064;53.406;23.500;2022-07-29T02:14:21;2.78;;;1.52;;
73593;SDS011;62064;53.406;23.500;2022-07-29T02:16:49;2.67;;;1.45;;
73593;SDS011;62064;53.406;23.500;2022-07-29T02:19:19;2.13;;;1.30;;
73593;SDS011;62064;53.406;23.500;2022-07-29T02:21:47;2.95;;;1.70;;
73593;SDS011;62064;53.406;23.500;2022-07-29T02:24:14;2.75;;;1.40;;
73593;SDS011;62064;53.406;23.500;2022-07-29T02:26:43;2.55;;;1.40;;
73593;SDS011;62064;53.406;23.500;2022-07-29T02:29:17;2.33;;;1.60;;
73593;SDS011;62064;53.406;23.500;2022-07-29T02:31:49;2.75;;;1.20;;
73593;SDS011;62064;53.406;23.500;2022-07-29T02:34:16;2.33;;;1.23;;
73593;SDS011;62064;53.406;23.500;2022-07-29T02:36:43;1.85;;;1.17;;
73593;SDS011;62064;53.406;23.500;2022-07-29T02:39:11;2.25;;;1.25;;
73593;SDS011;62064;53.406;23.500;2022-07-29T02:41:42;2.85;;;1.50;;
73593;SDS011;62064;53.406;23.500;2022-07-29T02:44:18;1.98;;;1.30;;
73593;SDS011;62064;53.406;23.500;2022-07-29T02:46:47;2.38;;;1.20;;
73593;SDS011;62064;53.406;23.500;2022-07-29T02:51:46;2.00;;;1.20;;
73593;SDS011;62064;53.406;23.500;2022-07-29T02:54:25;1.83;;;1.15;;
73593;SDS011;62064;53.406;23.500;2022-07-29T02:56:57;3.38;;;1.20;;
73593;SDS011;62064;53.406;23.500;2022-07-29T02:59:27;2.25;;;1.20;;
73593;SDS011;62064;53.406;23.500;2022-07-29T03:01:58;2.60;;;1.40;;
73593;SDS011;62064;53.406;23.500;2022-07-29T03:04:26;1.98;;;1.15;;
73593;SDS011;62064;53.406;23.500;2022-07-29T03:06:55;2.58;;;1.23;;
73593;SDS011;62064;53.406;23.500;2022-07-29T03:09:24;2.45;;;1.33;;
73593;SDS011;62064;53.406;23.500;2022-07-29T03:11:51;2.30;;;1.40;;
73593;SDS011;62064;53.406;23.500;2022-07-29T03:14:20;2.05;;;1.20;;
73593;SDS011;62064;53.406;23.500;2022-07-29T03:16:48;2.17;;;1.20;;
73593;SDS011;62064;53.406;23.500;2022-07-29T03:19:15;1.73;;;1.10;;
73593;SDS011;62064;53.406;23.500;2022-07-29T03:21:42;2.45;;;1.27;;
73593;SDS011;62064;53.406;23.500;2022-07-29T03:24:08;4.18;;;1.83;;
73593;SDS011;62064;53.406;23.500;2022-07-29T03:26:34;3.65;;;1.52;;
73593;SDS011;62064;53.406;23.500;2022-07-29T03:29:00;2.25;;;1.23;;
73593;SDS011;62064;53.406;23.500;2022-07-29T03:31:26;3.17;;;1.58;;
73593;SDS011;62064;53.406;23.500;2022-07-29T03:33:52;3.35;;;1.45;;
73593;SDS011;62064;53.406;23.500;2022-07-29T03:36:18;4.13;;;1.38;;
73593;SDS011;62064;53.406;23.500;2022-07-29T03:38:44;3.28;;;1.60;;
73593;SDS011;62064;53.406;23.500;2022-07-29T03:41:12;3.45;;;1.52;;
73593;SDS011;62064;53.406;23.500;2022-07-29T03:43:40;3.40;;;1.40;;
73593;SDS011;62064;53.406;23.500;2022-07-29T03:46:08;3.55;;;1.38;;
73593;SDS011;62064;53.406;23.500;2022-07-29T03:48:36;2.47;;;1.48;;
73593;SDS011;62064;53.406;23.500;2022-07-29T03:51:05;4.70;;;2.17;;
73593;SDS011;62064;53.406;23.500;2022-07-29T03:53:32;4.25;;;1.40;;
73593;SDS011;62064;53.406;23.500;2022-07-29T03:56:00;3.08;;;1.30;;
73593;SDS011;62064;53.406;23.500;2022-07-29T03:58:28;3.65;;;1.40;;
73593;SDS011;62064;53.406;23.500;2022-07-29T04:00:57;2.78;;;1.30;;
73593;SDS011;62064;53.406;23.500;2022-07-29T04:03:23;2.80;;;1.35;;
73593;SDS011;62064;53.406;23.500;2022-07-29T04:06:00;4.20;;;1.50;;
73593;SDS011;62064;53.406;23.500;2022-07-29T04:08:28;2.95;;;1.27;;
73593;SDS011;62064;53.406;23.500;2022-07-29T04:10:55;2.70;;;1.17;;
73593;SDS011;62064;53.406;23.500;2022-07-29T04:13:21;2.40;;;1.10;;
73593;SDS011;62064;53.406;23.500;2022-07-29T04:15:47;2.40;;;1.10;;
73593;SDS011;62064;53.406;23.500;2022-07-29T04:18:13;2.15;;;1.23;;
73593;SDS011;62064;53.406;23.500;2022-07-29T04:20:39;1.92;;;1.13;;
73593;SDS011;62064;53.406;23.500;2022-07-29T04:23:05;2.30;;;1.30;;
73593;SDS011;62064;53.406;23.500;2022-07-29T04:25:32;2.13;;;1.23;;
73593;SDS011;62064;53.406;23.500;2022-07-29T04:27:58;1.98;;;1.13;;
73593;SDS011;62064;53.406;23.500;2022-07-29T04:30:26;2.15;;;1.23;;
73593;SDS011;62064;53.406;23.500;2022-07-29T04:32:53;2.65;;;1.00;;
73593;SDS011;62064;53.406;23.500;2022-07-29T04:35:20;1.65;;;1.10;;
73593;SDS011;62064;53.406;23.500;2022-07-29T04:37:46;2.10;;;1.50;;
73593;SDS011;62064;53.406;23.500;2022-07-29T04:40:12;4.00;;;1.20;;
73593;SDS011;62064;53.406;23.500;2022-07-29T04:42:39;2.17;;;1.05;;
73593;SDS011;62064;53.406;23.500;2022-07-29T04:45:05;2.55;;;1.20;;
73593;SDS011;62064;53.406;23.500;2022-07-29T04:47:32;2.38;;;1.25;;
73593;SDS011;62064;53.406;23.500;2022-07-29T04:49:58;2.28;;;1.23;;
73593;SDS011;62064;53.406;23.500;2022-07-29T04:52:24;2.60;;;1.05;;
73593;SDS011;62064;53.406;23.500;2022-07-29T04:54:50;1.95;;;1.15;;
73593;SDS011;62064;53.406;23.500;2022-07-29T04:57:16;2.22;;;1.17;;
73593;SDS011;62064;53.406;23.500;2022-07-29T04:59:42;1.73;;;1.00;;
73593;SDS011;62064;53.406;23.500;2022-07-29T05:02:09;1.20;;;0.80;;
73593;SDS011;62064;53.406;23.500;2022-07-29T05:04:35;2.20;;;1.08;;
73593;SDS011;62064;53.406;23.500;2022-07-29T05:07:02;2.10;;;1.27;;
73593;SDS011;62064;53.406;23.500;2022-07-29T05:09:28;4.05;;;1.20;;
73593;SDS011;62064;53.406;23.500;2022-07-29T05:11:54;1.48;;;0.93;;
73593;SDS011;62064;53.406;23.500;2022-07-29T05:14:20;2.05;;;0.90;;
73593;SDS011;62064;53.406;23.500;2022-07-29T05:16:46;2.40;;;0.90;;
73593;SDS011;62064;53.406;23.500;2022-07-29T05:19:12;2.13;;;1.10;;
73593;SDS011;62064;53.406;23.500;2022-07-29T05:21:38;3.25;;;1.10;;
73593;SDS011;62064;53.406;23.500;2022-07-29T05:24:04;2.28;;;1.20;;
73593;SDS011;62064;53.406;23.500;2022-07-29T05:26:31;3.00;;;0.95;;
73593;SDS011;62064;53.406;23.500;2022-07-29T05:28:57;1.80;;;1.20;;
73593;SDS011;62064;53.406;23.500;2022-07-29T05:31:23;2.45;;;1.10;;
73593;SDS011;62064;53.406;23.500;2022-07-29T05:33:49;1.70;;;1.10;;
73593;SDS011;62064;53.406;23.500;2022-07-29T05:36:15;2.33;;;1.08;;
73593;SDS011;62064;53.406;23.500;2022-07-29T05:38:41;1.95;;;0.80;;
73593;SDS011;62064;53.406;23.500;2022-07-29T05:41:07;2.67;;;1.00;;
73593;SDS011;62064;53.406;23.500;2022-07-29T05:43:33;2.40;;;0.90;;
73593;SDS011;62064;53.406;23.500;2022-07-29T05:45:59;1.65;;;0.90;;
73593;SDS011;62064;53.406;23.500;2022-07-29T05:48:26;1.92;;;0.90;;
73593;SDS011;62064;53.406;23.500;2022-07-29T05:50:52;3.38;;;1.77;;
73593;SDS011;62064;53.406;23.500;2022-07-29T05:53:18;1.90;;;1.02;;
73593;SDS011;62064;53.406;23.500;2022-07-29T05:55:44;2.10;;;1.10;;
73593;SDS011;62064;53.406;23.500;2022-07-29T05:58:10;2.47;;;1.02;;
73593;SDS011;62064;53.406;23.500;2022-07-29T06:00:36;3.55;;;1.10;;
73593;SDS011;62064;53.406;23.500;2022-07-29T06:03:02;1.67;;;1.10;;
73593;SDS011;62064;53.406;23.500;2022-07-29T06:05:28;1.75;;;1.10;;
73593;SDS011;62064;53.406;23.500;2022-07-29T06:07:55;2.67;;;1.00;;
73593;SDS011;62064;53.406;23.500;2022-07-29T06:10:21;2.47;;;1.10;;
73593;SDS011;62064;53.406;23.500;2022-07-29T06:12:48;1.90;;;0.90;;
73593;SDS011;62064;53.406;23.500;2022-07-29T06:15:14;2.15;;;1.05;;
73593;SDS011;62064;53.406;23.500;2022-07-29T06:17:41;4.95;;;1.23;;
73593;SDS011;62064;53.406;23.500;2022-07-29T06:20:07;1.50;;;0.75;;
73593;SDS011;62064;53.406;23.500;2022-07-29T06:22:34;2.78;;;1.10;;
73593;SDS011;62064;53.406;23.500;2022-07-29T06:25:00;1.90;;;1.02;;
73593;SDS011;62064;53.406;23.500;2022-07-29T06:27:27;2.30;;;1.00;;
73593;SDS011;62064;53.406;23.500;2022-07-29T06:29:53;4.32;;;1.10;;
73593;SDS011;62064;53.406;23.500;2022-07-29T06:32:19;2.53;;;1.13;;
73593;SDS011;62064;53.406;23.500;2022-07-29T06:34:45;4.95;;;1.23;;
73593;SDS011;62064;53.406;23.500;2022-07-29T06:37:12;3.05;;;1.15;;
73593;SDS011;62064;53.406;23.500;2022-07-29T06:39:38;4.55;;;1.02;;
73593;SDS011;62064;53.406;23.500;2022-07-29T06:42:04;3.53;;;1.58;;
73593;SDS011;62064;53.406;23.500;2022-07-29T06:44:31;4.70;;;1.15;;
73593;SDS011;62064;53.406;23.500;2022-07-29T06:46:59;3.25;;;1.15;;
73593;SDS011;62064;53.406;23.500;2022-07-29T06:49:26;3.67;;;1.30;;
73593;SDS011;62064;53.406;23.500;2022-07-29T06:51:53;2.97;;;1.02;;
73593;SDS011;62064;53.406;23.500;2022-07-29T06:54:21;4.28;;;0.95;;
73593;SDS011;62064;53.406;23.500;2022-07-29T06:56:48;1.65;;;1.05;;
73593;SDS011;62064;53.406;23.500;2022-07-29T06:59:19;2.45;;;1.05;;
73593;SDS011;62064;53.406;23.500;2022-07-29T07:01:45;3.92;;;1.10;;
73593;SDS011;62064;53.406;23.500;2022-07-29T07:04:13;2.90;;;1.00;;
73593;SDS011;62064;53.406;23.500;2022-07-29T07:07:03;5.18;;;1.10;;
73593;SDS011;62064;53.406;23.500;2022-07-29T07:10:06;2.05;;;1.10;;
73593;SDS011;62064;53.406;23.500;2022-07-29T07:12:43;3.03;;;1.05;;
73593;SDS011;62064;53.406;23.500;2022-07-29T07:15:57;1.08;;;0.90;;
73593;SDS011;62064;53.406;23.500;2022-07-29T07:18:28;2.20;;;0.90;;
73593;SDS011;62064;53.406;23.500;2022-07-29T07:20:55;2.60;;;0.90;;
73593;SDS011;62064;53.406;23.500;2022-07-29T07:23:22;1.55;;;0.77;;
73593;SDS011;62064;53.406;23.500;2022-07-29T07:25:50;2.22;;;1.00;;
73593;SDS011;62064;53.406;23.500;2022-07-29T07:28:17;1.65;;;0.98;;
73593;SDS011;62064;53.406;23.500;2022-07-29T07:30:44;1.55;;;1.20;;
73593;SDS011;62064;53.406;23.500;2022-07-29T07:33:11;3.40;;;0.90;;
73593;SDS011;62064;53.406;23.500;2022-07-29T07:35:38;3.13;;;0.90;;
73593;SDS011;62064;53.406;23.500;2022-07-29T07:38:04;1.95;;;0.82;;
73593;SDS011;62064;53.406;23.500;2022-07-29T07:40:31;2.38;;;0.80;;
73593;SDS011;62064;53.406;23.500;2022-07-29T07:42:58;3.75;;;1.00;;
73593;SDS011;62064;53.406;23.500;2022-07-29T07:45:25;1.70;;;0.98;;
73593;SDS011;62064;53.406;23.500;2022-07-29T07:47:51;2.63;;;0.80;;
73593;SDS011;62064;53.406;23.500;2022-07-29T07:50:17;2.42;;;0.80;;
73593;SDS011;62064;53.406;23.500;2022-07-29T07:52:49;3.78;;;1.05;;
73593;SDS011;62064;53.406;23.500;2022-07-29T07:55:18;0.77;;;0.60;;
73593;SDS011;62064;53.406;23.500;2022-07-29T07:57:44;1.48;;;0.93;;
73593;SDS011;62064;53.406;23.500;2022-07-29T08:00:11;2.47;;;1.10;;
73593;SDS011;62064;53.406;23.500;2022-07-29T08:02:39;5.22;;;1.00;;
73593;SDS011;62064;53.406;23.500;2022-07-29T08:05:08;2.00;;;0.90;;
73593;SDS011;62064;53.406;23.500;2022-07-29T08:07:36;1.40;;;0.85;;
73593;SDS011;62064;53.406;23.500;2022-07-29T08:10:02;2.08;;;0.90;;
73593;SDS011;62064;53.406;23.500;2022-07-29T08:12:30;1.55;;;1.00;;
73593;SDS011;62064;53.406;23.500;2022-07-29T08:14:56;1.23;;;0.80;;
73593;SDS011;62064;53.406;23.500;2022-07-29T08:17:23;1.92;;;0.85;;
73593;SDS011;62064;53.406;23.500;2022-07-29T08:19:49;1.10;;;0.80;;
73593;SDS011;62064;53.406;23.500;2022-07-29T08:22:15;2.88;;;0.85;;
73593;SDS011;62064;53.406;23.500;2022-07-29T08:24:41;0.63;;;0.63;;
73593;SDS011;62064;53.406;23.500;2022-07-29T08:27:18;1.88;;;0.82;;
73593;SDS011;62064;53.406;23.500;2022-07-29T08:29:45;2.42;;;0.85;;
73593;SDS011;62064;53.406;23.500;2022-07-29T08:32:11;0.73;;;0.70;;
73593;SDS011;62064;53.406;23.500;2022-07-29T08:34:37;1.38;;;0.70;;
73593;SDS011;62064;53.406;23.500;2022-07-29T08:37:04;1.73;;;0.85;;
73593;SDS011;62064;53.406;23.500;2022-07-29T08:39:30;1.85;;;0.80;;
73593;SDS011;62064;53.406;23.500;2022-07-29T08:41:56;2.45;;;1.00;;
73593;SDS011;62064;53.406;23.500;2022-07-29T08:44:22;2.70;;;1.13;;
73593;SDS011;62064;53.406;23.500;2022-07-29T08:46:49;1.58;;;0.88;;
73593;SDS011;62064;53.406;23.500;2022-07-29T08:49:16;2.45;;;1.10;;
73593;SDS011;62064;53.406;23.500;2022-07-29T08:51:43;1.20;;;0.73;;
73593;SDS011;62064;53.406;23.500;2022-07-29T08:54:09;1.30;;;0.80;;
73593;SDS011;62064;53.406;23.500;2022-07-29T08:56:36;1.50;;;0.75;;
73593;SDS011;62064;53.406;23.500;2022-07-29T08:59:04;1.77;;;0.80;;
73593;SDS011;62064;53.406;23.500;2022-07-29T09:04:00;3.35;;;0.82;;
73593;SDS011;62064;53.406;23.500;2022-07-29T09:06:29;1.15;;;0.70;;
73593;SDS011;62064;53.406;23.500;2022-07-29T09:09:00;1.38;;;0.73;;
73593;SDS011;62064;53.406;23.500;2022-07-29T09:11:26;1.17;;;0.63;;
73593;SDS011;62064;53.406;23.500;2022-07-29T09:13:53;1.27;;;0.77;;
73593;SDS011;62064;53.406;23.500;2022-07-29T09:16:19;2.00;;;0.75;;
73593;SDS011;62064;53.406;23.500;2022-07-29T09:18:45;1.45;;;0.75;;
73593;SDS011;62064;53.406;23.500;2022-07-29T09:21:13;1.30;;;0.80;;
73593;SDS011;62064;53.406;23.500;2022-07-29T09:29:10;2.17;;;0.82;;
73593;SDS011;62064;53.406;23.500;2022-07-29T09:31:39;1.27;;;0.80;;
73593;SDS011;62064;53.406;23.500;2022-07-29T09:34:07;0.98;;;0.68;;
73593;SDS011;62064;53.406;23.500;2022-07-29T09:36:48;2.95;;;0.82;;
73593;SDS011;62064;53.406;23.500;2022-07-29T09:39:26;1.77;;;0.90;;
73593;SDS011;62064;53.406;23.500;2022-07-29T09:41:53;1.88;;;0.80;;
73593;SDS011;62064;53.406;23.500;2022-07-29T09:44:22;2.67;;;0.90;;
73593;SDS011;62064;53.406;23.500;2022-07-29T09:47:06;1.52;;;1.00;;
73593;SDS011;62064;53.406;23.500;2022-07-29T09:49:34;1.45;;;0.80;;
73593;SDS011;62064;53.406;23.500;2022-07-29T09:54:32;1.67;;;0.90;;
73593;SDS011;62064;53.406;23.500;2022-07-29T09:57:06;1.35;;;0.65;;
73593;SDS011;62064;53.406;23.500;2022-07-29T09:59:38;3.03;;;0.75;;
73593;SDS011;62064;53.406;23.500;2022-07-29T10:02:11;2.33;;;1.25;;
73593;SDS011;62064;53.406;23.500;2022-07-29T10:04:39;1.35;;;0.80;;
73593;SDS011;62064;53.406;23.500;2022-07-29T10:07:06;1.20;;;0.88;;
73593;SDS011;62064;53.406;23.500;2022-07-29T10:09:33;2.55;;;0.98;;
73593;SDS011;62064;53.406;23.500;2022-07-29T10:14:35;3.47;;;1.00;;
73593;SDS011;62064;53.406;23.500;2022-07-29T10:17:01;1.83;;;0.90;;
73593;SDS011;62064;53.406;23.500;2022-07-29T10:19:29;1.17;;;0.70;;
73593;SDS011;62064;53.406;23.500;2022-07-29T10:21:57;1.52;;;0.73;;
73593;SDS011;62064;53.406;23.500;2022-07-29T10:24:25;1.42;;;0.70;;
73593;SDS011;62064;53.406;23.500;2022-07-29T10:26:57;1.40;;;0.80;;
73593;SDS011;62064;53.406;23.500;2022-07-29T10:29:31;3.95;;;1.10;;
73593;SDS011;62064;53.406;23.500;2022-07-29T10:37:42;1.67;;;0.82;;
73593;SDS011;62064;53.406;23.500;2022-07-29T10:43:29;1.33;;;0.73;;
73593;SDS011;62064;53.406;23.500;2022-07-29T10:46:02;1.65;;;0.93;;
73593;SDS011;62064;53.406;23.500;2022-07-29T10:48:30;1.30;;;0.80;;
73593;SDS011;62064;53.406;23.500;2022-07-29T10:51:00;1.85;;;0.70;;
73593;SDS011;62064;53.406;23.500;2022-07-29T10:53:50;1.55;;;0.75;;
73593;SDS011;62064;53.406;23.500;2022-07-29T11:01:46;2.50;;;0.90;;
73593;SDS011;62064;53.406;23.500;2022-07-29T11:04:15;1.92;;;0.93;;
73593;SDS011;62064;53.406;23.500;2022-07-29T11:09:33;3.28;;;0.93;;
73593;SDS011;62064;53.406;23.500;2022-07-29T11:11:59;2.53;;;0.90;;
73593;SDS011;62064;53.406;23.500;2022-07-29T11:15:08;1.60;;;0.77;;
73593;SDS011;62064;53.406;23.500;2022-07-29T11:17:18;1.75;;;0.80;;
73593;SDS011;62064;53.406;23.500;2022-07-29T11:19:44;1.08;;;0.85;;
73593;SDS011;62064;53.406;23.500;2022-07-29T11:22:11;1.65;;;0.70;;
73593;SDS011;62064;53.406;23.500;2022-07-29T11:24:38;0.93;;;0.75;;
73593;SDS011;62064;53.406;23.500;2022-07-29T11:29:34;1.23;;;0.80;;
73593;SDS011;62064;53.406;23.500;2022-07-29T11:32:13;1.52;;;0.88;;
73593;SDS011;62064;53.406;23.500;2022-07-29T11:34:41;1.40;;;0.75;;
73593;SDS011;62064;53.406;23.500;2022-07-29T11:39:34;1.33;;;0.63;;
73593;SDS011;62064;53.406;23.500;2022-07-29T11:45:00;1.45;;;0.93;;
73593;SDS011;62064;53.406;23.500;2022-07-29T11:47:33;0.57;;;0.55;;
73593;SDS011;62064;53.406;23.500;2022-07-29T11:50:01;1.58;;;0.70;;
73593;SDS011;62064;53.406;23.500;2022-07-29T11:52:37;2.38;;;0.77;;
73593;SDS011;62064;53.406;23.500;2022-07-29T11:55:16;1.98;;;0.80;;
73593;SDS011;62064;53.406;23.500;2022-07-29T11:57:47;2.55;;;0.90;;
73593;SDS011;62064;53.406;23.500;2022-07-29T12:00:25;2.38;;;0.63;;
73593;SDS011;62064;53.406;23.500;2022-07-29T12:03:01;1.13;;;0.68;;
73593;SDS011;62064;53.406;23.500;2022-07-29T12:10:32;2.35;;;0.85;;
73593;SDS011;62064;53.406;23.500;2022-07-29T12:12:59;2.50;;;1.10;;
73593;SDS011;62064;53.406;23.500;2022-07-29T12:15:26;1.52;;;0.90;;
73593;SDS011;62064;53.406;23.500;2022-07-29T12:17:52;1.60;;;0.88;;
73593;SDS011;62064;53.406;23.500;2022-07-29T12:20:22;2.33;;;0.80;;
73593;SDS011;62064;53.406;23.500;2022-07-29T12:22:53;1.92;;;0.80;;
73593;SDS011;62064;53.406;23.500;2022-07-29T12:25:20;1.85;;;1.00;;
73593;SDS011;62064;53.406;23.500;2022-07-29T12:27:47;2.33;;;0.77;;
73593;SDS011;62064;53.406;23.500;2022-07-29T12:30:33;3.05;;;0.85;;
73593;SDS011;62064;53.406;23.500;2022-07-29T12:33:00;1.80;;;0.80;;
73593;SDS011;62064;53.406;23.500;2022-07-29T12:35:26;1.52;;;0.90;;
73593;SDS011;62064;53.406;23.500;2022-07-29T12:37:53;1.70;;;0.70;;
73593;SDS011;62064;53.406;23.500;2022-07-29T12:40:20;1.55;;;0.68;;
73593;SDS011;62064;53.406;23.500;2022-07-29T12:43:06;1.38;;;0.73;;
73593;SDS011;62064;53.406;23.500;2022-07-29T12:45:34;1.52;;;0.88;;
73593;SDS011;62064;53.406;23.500;2022-07-29T12:48:01;1.80;;;1.00;;
73593;SDS011;62064;53.406;23.500;2022-07-29T12:50:28;1.50;;;0.90;;
73593;SDS011;62064;53.406;23.500;2022-07-29T12:52:54;1.25;;;0.70;;
73593;SDS011;62064;53.406;23.500;2022-07-29T12:55:53;1.20;;;0.65;;
73593;SDS011;62064;53.406;23.500;2022-07-29T12:58:27;1.13;;;0.63;;
73593;SDS011;62064;53.406;23.500;2022-07-29T13:09:07;1.75;;;0.80;;
73593;SDS011;62064;53.406;23.500;2022-07-29T13:11:49;0.90;;;0.77;;
73593;SDS011;62064;53.406;23.500;2022-07-29T13:14:29;3.63;;;1.05;;
73593;SDS011;62064;53.406;23.500;2022-07-29T13:19:42;1.02;;;0.90;;
73593;SDS011;62064;53.406;23.500;2022-07-29T13:22:12;1.67;;;0.90;;
73593;SDS011;62064;53.406;23.500;2022-07-29T13:24:47;2.10;;;0.82;;
73593;SDS011;62064;53.406;23.500;2022-07-29T13:27:16;2.22;;;0.90;;
73593;SDS011;62064;53.406;23.500;2022-07-29T13:29:43;2.40;;;1.00;;
73593;SDS011;62064;53.406;23.500;2022-07-29T13:32:09;1.70;;;0.90;;
73593;SDS011;62064;53.406;23.500;2022-07-29T13:34:37;1.35;;;0.75;;
73593;SDS011;62064;53.406;23.500;2022-07-29T13:37:05;1.77;;;0.93;;
73593;SDS011;62064;53.406;23.500;2022-07-29T13:39:31;1.23;;;0.80;;
73593;SDS011;62064;53.406;23.500;2022-07-29T13:41:57;1.85;;;0.90;;
73593;SDS011;62064;53.406;23.500;2022-07-29T13:44:23;1.88;;;1.05;;
73593;SDS011;62064;53.406;23.500;2022-07-29T13:46:49;2.53;;;1.20;;
73593;SDS011;62064;53.406;23.500;2022-07-29T13:49:15;1.85;;;1.02;;
73593;SDS011;62064;53.406;23.500;2022-07-29T13:51:41;2.63;;;1.23;;
73593;SDS011;62064;53.406;23.500;2022-07-29T13:54:08;0.95;;;0.70;;
73593;SDS011;62064;53.406;23.500;2022-07-29T13:56:34;1.85;;;0.82;;
73593;SDS011;62064;53.406;23.500;2022-07-29T13:59:00;0.88;;;0.80;;
73593;SDS011;62064;53.406;23.500;2022-07-29T14:01:26;1.15;;;0.90;;
73593;SDS011;62064;53.406;23.500;2022-07-29T14:03:53;1.80;;;0.80;;
73593;SDS011;62064;53.406;23.500;2022-07-29T14:06:19;2.03;;;0.93;;
73593;SDS011;62064;53.406;23.500;2022-07-29T14:08:45;2.17;;;1.00;;
73593;SDS011;62064;53.406;23.500;2022-07-29T14:11:11;2.42;;;0.90;;
73593;SDS011;62064;53.406;23.500;2022-07-29T14:13:37;3.13;;;0.90;;
73593;SDS011;62064;53.406;23.500;2022-07-29T14:16:03;1.65;;;1.00;;
73593;SDS011;62064;53.406;23.500;2022-07-29T14:18:31;1.20;;;0.70;;
73593;SDS011;62064;53.406;23.500;2022-07-29T14:20:57;1.42;;;0.88;;
73593;SDS011;62064;53.406;23.500;2022-07-29T14:23:23;1.80;;;1.20;;
73593;SDS011;62064;53.406;23.500;2022-07-29T14:25:51;1.48;;;0.80;;
73593;SDS011;62064;53.406;23.500;2022-07-29T14:28:17;3.05;;;0.80;;
73593;SDS011;62064;53.406;23.500;2022-07-29T14:30:43;2.40;;;0.88;;
73593;SDS011;62064;53.406;23.500;2022-07-29T14:33:10;1.38;;;0.88;;
73593;SDS011;62064;53.406;23.500;2022-07-29T14:35:36;1.23;;;0.80;;
73593;SDS011;62064;53.406;23.500;2022-07-29T14:38:02;1.75;;;0.90;;
73593;SDS011;62064;53.406;23.500;2022-07-29T14:40:29;0.73;;;0.73;;
73593;SDS011;62064;53.406;23.500;2022-07-29T14:42:55;1.27;;;0.77;;
73593;SDS011;62064;53.406;23.500;2022-07-29T14:45:21;1.38;;;0.80;;
73593;SDS011;62064;53.406;23.500;2022-07-29T14:47:48;1.55;;;0.90;;
73593;SDS011;62064;53.406;23.500;2022-07-29T14:50:16;2.08;;;1.10;;
73593;SDS011;62064;53.406;23.500;2022-07-29T14:52:43;1.33;;;0.80;;
73593;SDS011;62064;53.406;23.500;2022-07-29T14:55:10;2.53;;;1.00;;
73593;SDS011;62064;53.406;23.500;2022-07-29T14:57:36;1.33;;;0.90;;
73593;SDS011;62064;53.406;23.500;2022-07-29T15:00:04;2.10;;;1.02;;
73593;SDS011;62064;53.406;23.500;2022-07-29T15:02:33;1.63;;;0.90;;
73593;SDS011;62064;53.406;23.500;2022-07-29T15:04:59;2.50;;;1.05;;
73593;SDS011;62064;53.406;23.500;2022-07-29T15:07:26;2.30;;;1.05;;
73593;SDS011;62064;53.406;23.500;2022-07-29T15:09:53;2.50;;;1.20;;
73593;SDS011;62064;53.406;23.500;2022-07-29T15:12:19;1.83;;;1.00;;
73593;SDS011;62064;53.406;23.500;2022-07-29T15:14:46;2.60;;;1.10;;
73593;SDS011;62064;53.406;23.500;2022-07-29T15:17:19;2.17;;;0.85;;
73593;SDS011;62064;53.406;23.500;2022-07-29T15:19:46;2.42;;;0.90;;
73593;SDS011;62064;53.406;23.500;2022-07-29T15:22:13;1.77;;;0.93;;
73593;SDS011;62064;53.406;23.500;2022-07-29T15:24:39;2.53;;;0.93;;
73593;SDS011;62064;53.406;23.500;2022-07-29T15:27:05;1.95;;;0.93;;
73593;SDS011;62064;53.406;23.500;2022-07-29T15:29:31;3.13;;;1.00;;
73593;SDS011;62064;53.406;23.500;2022-07-29T15:31:58;4.35;;;1.00;;
73593;SDS011;62064;53.406;23.500;2022-07-29T15:34:24;3.75;;;1.02;;
73593;SDS011;62064;53.406;23.500;2022-07-29T15:36:50;2.78;;;1.00;;
73593;SDS011;62064;53.406;23.500;2022-07-29T15:39:17;2.08;;;1.10;;
73593;SDS011;62064;53.406;23.500;2022-07-29T15:41:43;2.03;;;0.90;;
73593;SDS011;62064;53.406;23.500;2022-07-29T15:44:11;2.13;;;1.00;;
73593;SDS011;62064;53.406;23.500;2022-07-29T15:46:37;2.42;;;1.10;;